Weather at Albury Airport

Public forecast

Using degrees Celsius for public forecast. Weather courtesy of forecast.io.

Closest aviation weather report (METAR) to Albury Airport

Closest report is Canberra International Airport, 118.2 nm (218.9 km) ENE.

2024/05/29 20:00 (retrieved 24 minutes ago)

YSCB 292000Z AUTO 00000KT 9999 // BKN057 05/04 Q1025 RF000/0000

Closest aviation forecast (TAF) to Albury Airport

Closest forecast is Canberra International Airport, 118.2 nm (218.9 km) ENE.

2024/05/29 18:26 Ammendment (retrieved 2 hours ago)

TAF AMD YSCB 291723Z 2918/3018 VRB03KT 9999 BKN050 FM300000 33012KT 9999 SCT050 FM300300 33015G25KT 9999 SCT050 FM300600 33014KT 9999 FEW050 PROB30 2918/2922 0300 FG